createdAt,value
2018-09-13T00:00:41.282Z,15.40
2018-09-13T00:03:09.885Z,15.40
2018-09-13T00:05:38.464Z,15.50
2018-09-13T00:08:07.026Z,15.40
2018-09-13T00:10:35.927Z,15.40
2018-09-13T00:13:04.548Z,15.40
2018-09-13T00:15:33.559Z,15.40
2018-09-13T00:18:02.277Z,15.30
2018-09-13T00:20:30.835Z,15.40
2018-09-13T00:22:59.440Z,15.40
2018-09-13T00:25:28.017Z,15.40
2018-09-13T00:27:56.739Z,15.30
2018-09-13T00:30:25.620Z,15.30
2018-09-13T00:32:54.208Z,15.30
2018-09-13T00:35:22.746Z,15.30
2018-09-13T00:37:51.267Z,15.30
2018-09-13T00:40:20.285Z,15.40
2018-09-13T00:42:49.297Z,15.40
2018-09-13T00:45:18.128Z,15.40
2018-09-13T00:47:46.686Z,15.30
2018-09-13T00:50:15.875Z,15.40
2018-09-13T00:52:44.522Z,15.50
2018-09-13T00:55:13.450Z,15.50
2018-09-13T00:57:42.243Z,15.40
2018-09-13T01:00:10.817Z,15.30
2018-09-13T01:02:39.450Z,15.20
2018-09-13T01:05:08.392Z,15.20
2018-09-13T01:07:37.230Z,15.20
2018-09-13T01:10:05.821Z,15.10
2018-09-13T01:12:34.549Z,15.10
2018-09-13T01:15:03.396Z,15.00
2018-09-13T01:17:31.967Z,15.00
2018-09-13T01:20:00.993Z,15.00
2018-09-13T01:22:29.573Z,15.10
2018-09-13T01:24:58.260Z,15.00
2018-09-13T01:27:27.966Z,15.10
2018-09-13T01:29:57.799Z,15.10
2018-09-13T01:32:26.457Z,15.10
2018-09-13T01:34:55.404Z,15.10
2018-09-13T01:37:24.011Z,15.00
2018-09-13T01:39:52.579Z,15.00
2018-09-13T01:42:21.153Z,15.00
2018-09-13T01:44:49.688Z,15.00
2018-09-13T01:47:18.602Z,15.00
2018-09-13T01:49:47.224Z,15.00
2018-09-13T01:52:15.844Z,15.10
2018-09-13T01:54:44.721Z,15.20
2018-09-13T01:57:13.352Z,15.20
2018-09-13T01:59:41.883Z,15.30
2018-09-13T02:02:10.628Z,15.30
2018-09-13T02:04:39.403Z,15.30
2018-09-13T02:07:08.367Z,15.20
2018-09-13T02:09:37.006Z,15.20
2018-09-13T02:12:05.867Z,15.20
2018-09-13T02:14:34.426Z,15.30
2018-09-13T02:17:03.188Z,15.20
2018-09-13T02:19:31.881Z,15.10
2018-09-13T02:22:00.614Z,15.10
2018-09-13T02:24:29.206Z,15.10
2018-09-13T02:26:57.857Z,15.10
2018-09-13T02:29:26.407Z,15.20
2018-09-13T02:31:54.990Z,15.10
2018-09-13T02:34:23.741Z,15.20
2018-09-13T02:36:52.405Z,15.20
2018-09-13T02:39:20.965Z,15.20
2018-09-13T02:41:49.583Z,15.10
2018-09-13T02:44:18.237Z,15.20
2018-09-13T02:46:46.962Z,15.00
2018-09-13T02:49:15.967Z,14.90
2018-09-13T02:51:44.631Z,14.90
2018-09-13T02:54:13.367Z,15.00
2018-09-13T02:56:41.970Z,15.00
2018-09-13T02:59:10.779Z,15.00
2018-09-13T03:01:39.422Z,15.00
2018-09-13T03:04:07.941Z,14.90
2018-09-13T03:06:36.848Z,14.80
2018-09-13T03:09:09.184Z,14.80
2018-09-13T03:11:38.129Z,14.80
2018-09-13T03:14:07.037Z,14.80
2018-09-13T03:16:35.827Z,14.70
2018-09-13T03:19:04.535Z,14.70
2018-09-13T03:21:33.118Z,14.50
2018-09-13T03:24:01.953Z,14.60
2018-09-13T03:26:30.606Z,14.70
2018-09-13T03:28:59.229Z,14.60
2018-09-13T03:31:28.105Z,14.50
2018-09-13T03:33:56.949Z,14.40
2018-09-13T03:36:25.495Z,14.40
2018-09-13T03:38:54.209Z,14.30
2018-09-13T03:41:22.863Z,14.30
2018-09-13T03:43:51.490Z,14.40
2018-09-13T03:46:20.026Z,14.40
2018-09-13T03:48:48.601Z,14.40
2018-09-13T03:51:17.180Z,14.50
2018-09-13T03:53:45.706Z,14.50
2018-09-13T03:56:14.620Z,14.60
2018-09-13T03:58:43.326Z,14.60
2018-09-13T04:01:11.962Z,14.50
2018-09-13T04:03:40.978Z,14.60
2018-09-13T04:06:09.957Z,14.60
2018-09-13T04:08:38.541Z,14.50
2018-09-13T04:11:07.322Z,14.40
2018-09-13T04:13:36.093Z,14.50
2018-09-13T04:16:04.660Z,14.50
2018-09-13T04:18:33.633Z,14.50
2018-09-13T04:21:02.309Z,14.60
2018-09-13T04:23:30.865Z,14.50
2018-09-13T04:25:59.733Z,14.50
2018-09-13T04:28:28.599Z,14.40
2018-09-13T04:30:57.301Z,14.30
2018-09-13T04:33:25.967Z,14.30
2018-09-13T04:35:55.173Z,14.30
2018-09-13T04:38:23.908Z,14.30
2018-09-13T04:40:52.513Z,14.30
2018-09-13T04:43:21.485Z,14.30
2018-09-13T04:45:51.060Z,14.30
2018-09-13T04:48:19.914Z,14.30
2018-09-13T04:50:48.510Z,14.30
2018-09-13T04:53:17.620Z,14.30
2018-09-13T04:55:46.703Z,14.30
2018-09-13T04:58:15.300Z,14.40
2018-09-13T05:00:43.972Z,14.50
2018-09-13T05:03:12.646Z,14.60
2018-09-13T05:05:41.514Z,14.50
2018-09-13T05:08:10.346Z,14.50
2018-09-13T05:10:38.960Z,14.40
2018-09-13T05:13:07.623Z,14.50
2018-09-13T05:15:36.306Z,14.50
2018-09-13T05:18:05.296Z,14.50
2018-09-13T05:20:33.814Z,14.40
2018-09-13T05:23:02.671Z,14.30
2018-09-13T05:25:31.510Z,14.20
2018-09-13T05:28:00.231Z,14.30
2018-09-13T05:30:29.312Z,14.30
2018-09-13T05:32:58.231Z,14.30
2018-09-13T05:35:26.792Z,14.30
2018-09-13T05:37:55.504Z,14.20
2018-09-13T05:40:24.323Z,14.30
2018-09-13T05:42:53.104Z,14.30
2018-09-13T05:45:22.065Z,14.40
2018-09-13T05:47:50.836Z,14.50
2018-09-13T05:50:19.572Z,14.60
2018-09-13T05:52:48.302Z,14.50
2018-09-13T05:55:17.120Z,14.50
2018-09-13T05:57:45.703Z,14.50
2018-09-13T06:00:14.260Z,14.50
2018-09-13T06:02:42.798Z,14.60
2018-09-13T06:05:11.413Z,14.60
2018-09-13T06:07:40.176Z,14.50
2018-09-13T06:10:08.731Z,14.50
2018-09-13T06:12:37.502Z,14.60
2018-09-13T06:15:06.401Z,14.60
2018-09-13T06:17:35.271Z,14.50
2018-09-13T06:20:03.788Z,14.50
2018-09-13T06:22:32.553Z,14.40
2018-09-13T06:25:01.217Z,14.40
2018-09-13T06:27:30.067Z,14.50
2018-09-13T06:29:58.622Z,14.30
2018-09-13T06:32:27.552Z,14.20
2018-09-13T06:34:56.474Z,14.40
2018-09-13T06:37:25.291Z,14.30
2018-09-13T06:39:54.293Z,14.20
2018-09-13T06:42:22.968Z,14.30
2018-09-13T06:44:51.443Z,14.40
2018-09-13T06:47:19.990Z,14.30
2018-09-13T06:49:48.898Z,14.20
2018-09-13T06:52:18.653Z,14.20
2018-09-13T06:54:48.167Z,14.10
2018-09-13T06:57:16.983Z,14.20
2018-09-13T06:59:45.666Z,14.30
2018-09-13T07:02:14.485Z,14.50
2018-09-13T07:04:43.152Z,14.60
2018-09-13T07:07:11.761Z,14.80
2018-09-13T07:09:40.652Z,15.00
2018-09-13T07:12:09.212Z,15.10
2018-09-13T07:14:37.792Z,15.20
2018-09-13T07:17:06.410Z,15.30
2018-09-13T07:19:34.971Z,15.30
2018-09-13T07:22:03.706Z,15.40
2018-09-13T07:24:32.394Z,15.40
2018-09-13T07:27:01.248Z,15.40
2018-09-13T07:29:29.776Z,15.50
2018-09-13T07:31:58.508Z,15.50
2018-09-13T07:34:27.892Z,15.60
2018-09-13T07:36:56.541Z,15.50
2018-09-13T07:39:25.500Z,15.50
2018-09-13T07:41:54.465Z,15.50
2018-09-13T07:44:23.652Z,15.60
2018-09-13T07:46:52.408Z,15.70
2018-09-13T07:49:21.194Z,15.70
2018-09-13T07:51:49.886Z,15.90
2018-09-13T07:54:18.879Z,15.90
2018-09-13T07:56:47.454Z,15.80
2018-09-13T07:59:16.173Z,15.80
2018-09-13T08:01:44.871Z,15.70
2018-09-13T08:04:13.716Z,15.80
2018-09-13T08:06:42.369Z,15.60
2018-09-13T08:09:12.813Z,15.60
2018-09-13T08:11:42.208Z,15.50
2018-09-13T08:14:11.024Z,15.20
2018-09-13T08:16:39.785Z,15.00
2018-09-13T08:19:08.702Z,14.80
2018-09-13T08:21:37.775Z,14.90
2018-09-13T08:24:06.717Z,14.80
2018-09-13T08:26:35.687Z,14.90
2018-09-13T08:29:04.451Z,15.10
2018-09-13T08:31:33.053Z,15.10
2018-09-13T08:34:02.010Z,14.90
2018-09-13T08:36:30.755Z,14.90
2018-09-13T08:38:59.546Z,15.00
2018-09-13T08:41:28.105Z,15.10
2018-09-13T08:43:56.878Z,15.30
2018-09-13T08:46:25.866Z,15.40
2018-09-13T08:48:54.578Z,15.50
2018-09-13T08:51:23.542Z,15.40
2018-09-13T08:53:52.282Z,15.60
2018-09-13T08:56:21.471Z,16.00
2018-09-13T08:58:50.361Z,16.10
2018-09-13T09:01:18.970Z,16.20
2018-09-13T09:03:47.565Z,16.60
2018-09-13T09:06:16.447Z,16.60
2018-09-13T09:08:49.873Z,16.60
2018-09-13T09:11:18.513Z,16.60
2018-09-13T09:13:47.060Z,16.70
2018-09-13T09:16:15.726Z,16.70
2018-09-13T09:18:44.338Z,16.50
2018-09-13T09:21:12.936Z,16.40
2018-09-13T09:23:41.931Z,16.30
2018-09-13T09:26:10.666Z,16.50
2018-09-13T09:28:39.594Z,16.50
2018-09-13T09:31:08.491Z,16.60
2018-09-13T09:33:37.618Z,16.30
2018-09-13T09:36:06.573Z,16.30
2018-09-13T09:38:35.218Z,16.50
2018-09-13T09:41:03.878Z,16.30
2018-09-13T09:43:32.747Z,16.30
2018-09-13T09:46:01.392Z,16.50
2018-09-13T09:48:30.227Z,16.80
2018-09-13T09:50:58.954Z,16.80
2018-09-13T09:53:27.694Z,16.90
2018-09-13T09:55:56.730Z,17.20
2018-09-13T09:58:25.329Z,16.90
2018-09-13T10:00:59.272Z,16.60
2018-09-13T10:03:27.856Z,16.50
2018-09-13T10:05:56.599Z,16.60
2018-09-13T10:08:25.400Z,16.80
2018-09-13T10:10:54.007Z,16.70
2018-09-13T10:13:22.640Z,16.60
2018-09-13T10:15:56.398Z,16.70
2018-09-13T10:18:30.514Z,16.50
2018-09-13T10:21:04.614Z,16.60
2018-09-13T10:23:38.495Z,16.70
2018-09-13T10:27:13.236Z,16.60
2018-09-13T10:29:48.330Z,16.60
2018-09-13T10:32:22.581Z,16.80
2018-09-13T10:34:56.558Z,17.00
2018-09-13T10:37:30.591Z,17.20
2018-09-13T10:40:04.749Z,17.40
2018-09-13T10:42:38.826Z,17.20
2018-09-13T10:45:12.668Z,17.00
2018-09-13T10:47:56.478Z,17.00
2018-09-13T10:50:21.055Z,16.70
2018-09-13T10:52:54.721Z,16.90
2018-09-13T10:55:23.452Z,17.30
2018-09-13T10:57:52.360Z,17.20
2018-09-13T11:00:21.496Z,16.90
2018-09-13T11:02:50.214Z,17.20
2018-09-13T11:05:19.222Z,17.10
2018-09-13T11:07:48.254Z,17.10
2018-09-13T11:10:17.331Z,17.50
2018-09-13T11:12:47.914Z,17.40
2018-09-13T11:15:21.757Z,17.00
2018-09-13T11:17:50.432Z,17.10
2018-09-13T11:20:19.174Z,17.10
2018-09-13T11:22:52.098Z,17.40
2018-09-13T11:25:20.860Z,17.70
2018-09-13T11:27:49.562Z,17.70
2018-09-13T11:30:18.181Z,17.80
2018-09-13T11:32:47.216Z,17.70
2018-09-13T11:35:16.207Z,17.40
2018-09-13T11:37:45.076Z,17.30
2018-09-13T11:40:14.358Z,17.00
2018-09-13T11:42:43.442Z,17.10
2018-09-13T11:45:12.122Z,17.50
2018-09-13T11:47:41.526Z,17.60
2018-09-13T11:50:10.348Z,17.70
2018-09-13T11:52:39.043Z,17.70
2018-09-13T11:55:08.033Z,17.60
2018-09-13T11:57:36.914Z,17.70
2018-09-13T12:00:05.823Z,17.60
2018-09-13T12:02:34.457Z,17.30
2018-09-13T12:05:03.172Z,17.30
2018-09-13T12:07:31.903Z,17.20
2018-09-13T12:10:00.678Z,17.30
2018-09-13T12:12:29.497Z,17.30
2018-09-13T12:14:58.121Z,17.30
2018-09-13T12:17:30.189Z,17.00
2018-09-13T12:19:58.949Z,17.00
2018-09-13T12:22:27.769Z,17.00
2018-09-13T12:24:56.505Z,17.30
2018-09-13T12:27:25.587Z,17.40
2018-09-13T12:29:54.159Z,17.40
2018-09-13T12:32:22.712Z,17.30
2018-09-13T12:34:51.676Z,17.70
2018-09-13T12:37:20.492Z,17.70
2018-09-13T12:39:49.365Z,17.80
2018-09-13T12:42:18.399Z,17.30
2018-09-13T12:44:47.111Z,16.70
2018-09-13T12:47:15.908Z,16.90
2018-09-13T12:49:44.610Z,17.40
2018-09-13T12:52:13.848Z,17.70
2018-09-13T12:54:42.642Z,17.50
2018-09-13T12:57:17.555Z,17.10
2018-09-13T12:59:46.639Z,17.10
2018-09-13T13:02:15.794Z,17.00
2018-09-13T13:04:44.467Z,16.80
2018-09-13T13:07:13.191Z,16.40
2018-09-13T13:09:41.920Z,16.50
2018-09-13T13:12:10.694Z,16.70
2018-09-13T13:14:39.452Z,16.50
2018-09-13T13:17:08.252Z,16.70
2018-09-13T13:19:37.322Z,16.80
2018-09-13T13:22:06.190Z,16.60
2018-09-13T13:24:34.880Z,16.20
2018-09-13T13:27:03.793Z,16.20
2018-09-13T13:29:32.415Z,16.20
2018-09-13T13:32:01.400Z,16.20
2018-09-13T13:34:30.168Z,16.20
2018-09-13T13:36:58.960Z,16.10
2018-09-13T13:39:27.741Z,16.40
2018-09-13T13:41:56.496Z,16.20
2018-09-13T13:44:25.481Z,16.70
2018-09-13T13:46:54.232Z,16.70
2018-09-13T13:49:23.470Z,16.80
2018-09-13T13:51:52.317Z,16.70
2018-09-13T13:54:21.135Z,16.80
2018-09-13T13:56:50.019Z,16.80
2018-09-13T13:59:18.826Z,16.90
2018-09-13T14:01:47.696Z,16.60
2018-09-13T14:04:16.338Z,16.50
2018-09-13T14:06:45.499Z,16.50
2018-09-13T14:09:14.155Z,16.50
2018-09-13T14:11:43.048Z,16.40
2018-09-13T14:14:11.944Z,16.50
2018-09-13T14:16:40.816Z,16.60
2018-09-13T14:19:09.449Z,16.70
2018-09-13T14:21:38.188Z,16.70
2018-09-13T14:24:07.333Z,16.60
2018-09-13T14:26:36.069Z,16.70
2018-09-13T14:29:04.772Z,16.50
2018-09-13T14:31:33.382Z,16.30
2018-09-13T14:34:02.482Z,16.30
2018-09-13T14:36:31.434Z,16.40
2018-09-13T14:39:00.324Z,16.40
2018-09-13T14:41:28.921Z,16.20
2018-09-13T14:43:57.902Z,16.20
2018-09-13T14:46:26.641Z,16.10
2018-09-13T14:48:55.694Z,16.00
2018-09-13T14:51:24.530Z,16.10
2018-09-13T14:53:53.281Z,16.20
2018-09-13T14:56:21.978Z,16.40
2018-09-13T14:58:50.975Z,16.50
2018-09-13T15:01:19.924Z,16.60
2018-09-13T15:03:48.561Z,16.60
2018-09-13T15:06:17.333Z,16.50
2018-09-13T15:08:46.395Z,16.60
2018-09-13T15:11:15.389Z,16.70
2018-09-13T15:13:44.453Z,16.50
2018-09-13T15:16:13.018Z,16.70
2018-09-13T15:18:41.859Z,16.70
2018-09-13T15:21:10.707Z,16.80
2018-09-13T15:23:39.539Z,16.90
2018-09-13T15:26:08.452Z,17.20
2018-09-13T15:28:37.243Z,17.00
2018-09-13T15:31:06.210Z,16.90
2018-09-13T15:33:34.745Z,16.50
2018-09-13T15:36:03.533Z,16.40
2018-09-13T15:38:32.618Z,16.40
2018-09-13T15:41:01.271Z,16.40
2018-09-13T15:43:30.126Z,16.50
2018-09-13T15:45:59.245Z,16.50
2018-09-13T15:48:28.158Z,16.50
2018-09-13T15:50:57.022Z,16.80
2018-09-13T15:53:25.974Z,16.60
2018-09-13T15:55:55.103Z,16.50
2018-09-13T15:58:23.998Z,16.40
2018-09-13T16:00:53.218Z,16.50
2018-09-13T16:03:21.899Z,16.60
2018-09-13T16:05:50.929Z,16.60
2018-09-13T16:08:19.855Z,16.50
2018-09-13T16:10:48.973Z,16.30
2018-09-13T16:13:18.037Z,16.20
2018-09-13T16:15:46.644Z,16.20
2018-09-13T16:18:15.716Z,16.10
2018-09-13T16:20:44.959Z,16.30
2018-09-13T16:23:13.882Z,16.30
2018-09-13T16:25:43.450Z,16.00
2018-09-13T16:28:12.574Z,16.10
2018-09-13T16:30:41.619Z,16.20
2018-09-13T16:33:10.612Z,16.20
2018-09-13T16:35:50.473Z,16.10
2018-09-13T16:38:28.820Z,16.00
2018-09-13T16:41:03.358Z,16.00
2018-09-13T16:43:37.552Z,16.00
2018-09-13T16:46:07.978Z,16.00
2018-09-13T16:48:43.976Z,15.60
2018-09-13T16:51:13.255Z,15.70
2018-09-13T16:53:42.144Z,15.50
2018-09-13T16:56:10.888Z,15.50
2018-09-13T16:58:39.833Z,15.60
2018-09-13T17:01:08.850Z,15.90
2018-09-13T17:03:37.828Z,15.80
2018-09-13T17:06:06.856Z,15.70
2018-09-13T17:08:36.093Z,15.50
2018-09-13T17:11:05.044Z,15.40
2018-09-13T17:13:33.795Z,15.50
2018-09-13T17:16:02.812Z,15.70
2018-09-13T17:18:31.820Z,15.60
2018-09-13T17:21:00.450Z,15.50
2018-09-13T17:23:29.925Z,15.40
2018-09-13T17:25:58.968Z,15.40
2018-09-13T17:28:27.984Z,15.50
2018-09-13T17:30:56.909Z,15.40
2018-09-13T17:33:25.703Z,15.40
2018-09-13T17:35:55.746Z,15.30
2018-09-13T17:38:24.590Z,15.30
2018-09-13T17:40:54.216Z,15.30
2018-09-13T17:43:23.489Z,15.10
2018-09-13T17:45:52.816Z,15.20
2018-09-13T17:48:21.829Z,15.10
2018-09-13T17:50:51.489Z,15.00
2018-09-13T17:53:20.608Z,14.90
2018-09-13T17:55:50.275Z,14.80
2018-09-13T17:58:26.011Z,14.80
2018-09-13T18:00:55.638Z,14.90
2018-09-13T18:03:25.917Z,14.80
2018-09-13T18:05:55.111Z,14.80
2018-09-13T18:08:24.171Z,14.80
2018-09-13T18:10:53.501Z,14.80
2018-09-13T18:13:22.506Z,14.70
2018-09-13T18:15:51.686Z,14.70
2018-09-13T18:18:20.460Z,14.70
2018-09-13T18:20:49.479Z,14.60
2018-09-13T18:23:18.331Z,14.60
2018-09-13T18:25:47.236Z,14.50
2018-09-13T18:28:16.210Z,14.60
2018-09-13T18:30:45.381Z,14.60
2018-09-13T18:33:14.404Z,14.50
2018-09-13T18:35:43.478Z,14.50
2018-09-13T18:38:12.637Z,14.50
2018-09-13T18:40:41.444Z,14.50
2018-09-13T18:43:10.581Z,14.40
2018-09-13T18:45:39.734Z,14.40
2018-09-13T18:48:08.812Z,14.40
2018-09-13T18:50:38.414Z,14.40
2018-09-13T18:53:07.542Z,14.30
2018-09-13T18:55:36.472Z,14.30
2018-09-13T18:58:05.320Z,14.30
2018-09-13T19:00:34.133Z,14.30
2018-09-13T19:03:02.942Z,14.30
2018-09-13T19:05:31.923Z,14.30
2018-09-13T19:08:00.919Z,14.30
2018-09-13T19:10:30.007Z,14.30
2018-09-13T19:12:59.175Z,14.30
2018-09-13T19:15:28.108Z,14.30
2018-09-13T19:17:57.021Z,14.20
2018-09-13T19:20:25.900Z,14.20
2018-09-13T19:22:55.326Z,14.10
2018-09-13T19:25:24.603Z,14.10
2018-09-13T19:27:53.562Z,14.00
2018-09-13T19:30:22.696Z,13.80
2018-09-13T19:32:52.041Z,13.80
2018-09-13T19:35:21.489Z,13.70
2018-09-13T19:37:50.488Z,13.70
2018-09-13T19:40:19.424Z,13.70
2018-09-13T19:42:48.905Z,13.80
2018-09-13T19:45:17.736Z,13.70
2018-09-13T19:47:46.860Z,13.70
2018-09-13T19:50:15.931Z,13.70
2018-09-13T19:52:44.760Z,13.60
2018-09-13T19:55:13.904Z,13.60
2018-09-13T19:57:43.211Z,13.60
2018-09-13T20:00:12.514Z,13.60
2018-09-13T20:02:41.737Z,13.70
2018-09-13T20:05:10.758Z,13.70
2018-09-13T20:07:39.804Z,13.70
2018-09-13T20:10:08.568Z,13.60
2018-09-13T20:12:37.500Z,13.60
2018-09-13T20:15:07.006Z,13.60
2018-09-13T20:17:36.069Z,13.50
2018-09-13T20:20:05.085Z,13.50
2018-09-13T20:22:34.084Z,13.40
2018-09-13T20:25:02.903Z,13.40
2018-09-13T20:27:31.674Z,13.40
2018-09-13T20:30:00.482Z,13.30
2018-09-13T20:32:29.103Z,13.20
2018-09-13T20:34:57.810Z,13.10
2018-09-13T20:37:26.776Z,13.00
2018-09-13T20:39:55.642Z,13.00
2018-09-13T20:42:24.407Z,13.00
2018-09-13T20:44:53.197Z,13.00
2018-09-13T20:47:22.049Z,12.90
2018-09-13T20:49:51.089Z,12.80
2018-09-13T20:52:20.075Z,12.80
2018-09-13T20:54:48.924Z,12.70
2018-09-13T20:57:17.774Z,12.70
2018-09-13T20:59:46.482Z,12.60
2018-09-13T21:02:15.409Z,12.60
2018-09-13T21:04:44.377Z,12.50
2018-09-13T21:07:13.061Z,12.40
2018-09-13T21:09:41.914Z,12.30
2018-09-13T21:12:10.747Z,12.40
2018-09-13T21:14:39.594Z,12.30
2018-09-13T21:17:08.556Z,12.30
2018-09-13T21:19:37.541Z,12.30
2018-09-13T21:22:06.486Z,12.30
2018-09-13T21:24:35.229Z,12.20
2018-09-13T21:27:03.944Z,12.30
2018-09-13T21:29:32.761Z,12.30
2018-09-13T21:32:01.996Z,12.30
2018-09-13T21:34:31.102Z,12.30
2018-09-13T21:37:00.158Z,12.30
2018-09-13T21:39:28.878Z,12.30
2018-09-13T21:41:57.849Z,12.30
2018-09-13T21:44:26.781Z,12.40
2018-09-13T21:46:55.472Z,12.40
2018-09-13T21:49:24.326Z,12.40
2018-09-13T21:51:53.064Z,12.50
2018-09-13T21:54:21.605Z,12.50
2018-09-13T21:56:50.320Z,12.50
2018-09-13T21:59:19.067Z,12.50
2018-09-13T22:01:47.943Z,12.60
2018-09-13T22:04:16.708Z,12.70
2018-09-13T22:06:45.926Z,12.70
2018-09-13T22:09:16.498Z,12.70
2018-09-13T22:11:45.589Z,12.70
2018-09-13T22:14:14.318Z,12.70
2018-09-13T22:16:43.394Z,12.70
2018-09-13T22:19:12.146Z,12.80
2018-09-13T22:21:40.781Z,12.90
2018-09-13T22:24:09.724Z,12.90
2018-09-13T22:26:38.520Z,12.90
2018-09-13T22:29:07.240Z,13.00
2018-09-13T22:31:36.297Z,13.00
2018-09-13T22:34:06.783Z,13.00
2018-09-13T22:36:36.050Z,13.00
2018-09-13T22:39:07.953Z,13.00
2018-09-13T22:41:37.182Z,13.00
2018-09-13T22:44:05.930Z,13.00
2018-09-13T22:46:34.565Z,13.00
2018-09-13T22:49:03.427Z,13.00
2018-09-13T22:51:32.047Z,12.90
2018-09-13T22:54:01.525Z,12.90
2018-09-13T22:56:30.132Z,12.90
2018-09-13T22:58:58.778Z,13.00
2018-09-13T23:01:27.576Z,12.90
2018-09-13T23:03:56.221Z,12.90
2018-09-13T23:06:24.750Z,12.80
2018-09-13T23:08:53.742Z,12.80
2018-09-13T23:11:22.545Z,12.70
2018-09-13T23:13:51.298Z,12.60
2018-09-13T23:16:19.906Z,12.60
2018-09-13T23:18:48.708Z,12.60
2018-09-13T23:21:17.888Z,12.50
2018-09-13T23:23:46.446Z,12.50
2018-09-13T23:26:15.009Z,12.50
2018-09-13T23:28:43.637Z,12.50
2018-09-13T23:31:12.379Z,12.50
2018-09-13T23:33:41.008Z,12.50
2018-09-13T23:36:09.627Z,12.50
2018-09-13T23:38:38.191Z,12.50
2018-09-13T23:41:06.968Z,12.40
2018-09-13T23:43:35.648Z,12.40
2018-09-13T23:46:04.237Z,12.40
2018-09-13T23:48:33.066Z,12.40
2018-09-13T23:51:02.111Z,12.40
2018-09-13T23:53:30.823Z,12.30
2018-09-13T23:55:59.719Z,12.40
2018-09-13T23:58:28.489Z,12.40
